• Join FlightAware (Why Join?)
  • Login
  • US Flag 
11:14PM EDT


 

Airport Tracker/Info


-or-


 

Live Flight TrackerFlight Track Log ✈ CES5437 ✈ 23-Apr-2013 ✈ ZSQD / TAO - ZPPP / KMG

Flight Track Log - Related Links

Times and Time Zones

All times are in EDT time to prevent confusion due to time zone crossing. See the CES5437 flight status page for this flight to view local times or setup timezone preferences in your user account.

Time Position Orientation Groundspeed Altitude Reporting Facility
EDT Latitude Longitude Course Direction KTS MPH feet Rate Location/Type
07:14AM 32.8706 114.1884 238° Southwest  Level Estimated
07:15AM 32.8143 114.0942 235° Southwest  Level Estimated
07:16AM 32.7579 114.0001 235° Southwest  Level Estimated
07:17AM 32.7015 113.9062 234° Southwest  Level Estimated
07:18AM 32.6449 113.8123 234° Southwest  Level Estimated
07:19AM 32.5883 113.7186 234° Southwest  Level Estimated
07:20AM 32.5317 113.6250 234° Southwest  Level Estimated
07:21AM 32.4749 113.5315 234° Southwest  Level Estimated
07:22AM 32.4181 113.4382 234° Southwest  Level Estimated
07:23AM 32.3612 113.3449 234° Southwest  Level Estimated
07:24AM 32.3043 113.2518 234° Southwest  Level Estimated
07:25AM 32.2473 113.1588 234° Southwest  Level Estimated
07:26AM 32.1902 113.0659 234° Southwest  Level Estimated
07:27AM 32.1330 112.9731 234° Southwest  Level Estimated
07:28AM 32.0758 112.8804 234° Southwest  Level Estimated
07:29AM 32.0185 112.7879 234° Southwest  Level Estimated
07:30AM 31.9612 112.6954 234° Southwest  Level Estimated
07:31AM 31.9037 112.6031 234° Southwest  Level Estimated
07:32AM 31.8463 112.5109 234° Southwest  Level Estimated
07:33AM 31.7887 112.4188 234° Southwest  Level Estimated
07:34AM 31.7311 112.3269 234° Southwest  Level Estimated
07:35AM 31.6734 112.2350 234° Southwest  Level Estimated
07:36AM 31.6156 112.1433 234° Southwest  Level Estimated
07:37AM 31.5578 112.0516 233° Southwest  Level Estimated
07:38AM 31.4999 111.9601 233° Southwest  Level Estimated
07:39AM 31.4420 111.8687 233° Southwest  Level Estimated
07:40AM 31.3840 111.7774 233° Southwest  Level Estimated
07:41AM 31.3259 111.6862 233° Southwest  Level Estimated
07:42AM 31.2677 111.5952 233° Southwest  Level Estimated
07:43AM 31.2095 111.5042 233° Southwest  Level Estimated
07:44AM 31.1513 111.4134 233° Southwest  Level Estimated
07:45AM 31.0929 111.3227 233° Southwest  Level Estimated
07:46AM 31.0345 111.2320 233° Southwest  Level Estimated
07:47AM 30.9761 111.1415 233° Southwest  Level Estimated
07:48AM 30.9175 111.0511 233° Southwest  Level Estimated
07:49AM 30.8590 110.9608 233° Southwest  Level Estimated
07:50AM 30.8003 110.8707 233° Southwest  Level Estimated
07:51AM 30.7416 110.7806 233° Southwest  Level Estimated
07:52AM 30.6828 110.6906 233° Southwest  Level Estimated
07:53AM 30.6240 110.6008 233° Southwest  Level Estimated
07:54AM 30.5651 110.5110 233° Southwest  Level Estimated
07:55AM 30.5061 110.4214 233° Southwest  Level Estimated
07:56AM 30.4471 110.3319 233° Southwest  Level Estimated
07:57AM 30.3880 110.2425 233° Southwest  Level Estimated
07:58AM 30.3289 110.1532 233° Southwest  Level Estimated
07:59AM 30.2697 110.0640 232° Southwest  Level Estimated
08:00AM 30.2104 109.9749 232° Southwest  Level Estimated
08:01AM 30.1511 109.8859 232° Southwest  Level Estimated
08:02AM 30.0917 109.7971 232° Southwest  Level Estimated
08:03AM 30.0323 109.7083 232° Southwest  Level Estimated
08:04AM 29.9728 109.6196 232° Southwest  Level Estimated
08:05AM 29.9132 109.5311 232° Southwest  Level Estimated
08:06AM 29.8536 109.4426 232° Southwest  Level Estimated
08:07AM 29.7939 109.3543 232° Southwest  Level Estimated
08:08AM 29.7342 109.2661 232° Southwest  Level Estimated
08:09AM 29.6744 109.1779 232° Southwest  Level Estimated
08:10AM 29.6145 109.0899 232° Southwest  Level Estimated
08:11AM 29.5546 109.0020 232° Southwest  Level Estimated
08:12AM 29.4946 108.9141 232° Southwest  Level Estimated
08:13AM 29.4346 108.8264 232° Southwest  Level Estimated
08:14AM 29.3745 108.7388 232° Southwest  Level Estimated
08:15AM 29.3144 108.6513 232° Southwest  Level Estimated
08:16AM 29.2542 108.5639 232° Southwest  Level Estimated
08:17AM 29.1939 108.4766 232° Southwest  Level Estimated
08:18AM 29.1336 108.3894 232° Southwest  Level Estimated
08:19AM 29.0732 108.3023 232° Southwest  Level Estimated
08:20AM 29.0128 108.2153 232° Southwest  Level Estimated
08:21AM 28.9523 108.1284 232° Southwest  Level Estimated
08:22AM 28.8918 108.0416 231° Southwest  Level Estimated
08:23AM 28.8312 107.9550 231° Southwest  Level Estimated
08:24AM 28.7706 107.8684 231° Southwest  Level Estimated
08:25AM 28.7099 107.7819 231° Southwest  Level Estimated
08:26AM 28.6491 107.6955 231° Southwest  Level Estimated
08:27AM 28.5883 107.6092 231° Southwest  Level Estimated
08:28AM 28.5274 107.5230 231° Southwest  Level Estimated
08:29AM 28.4665 107.4369 231° Southwest  Level Estimated
08:30AM 28.4055 107.3509 231° Southwest  Level Estimated
08:31AM 28.3445 107.2650 231° Southwest  Level Estimated
08:32AM 28.2834 107.1793 231° Southwest  Level Estimated
08:33AM 28.2222 107.0936 231° Southwest  Level Estimated
08:34AM 28.1611 107.0080 231° Southwest  Level Estimated
08:35AM 28.0998 106.9225 231° Southwest  Level Estimated
08:36AM 28.0385 106.8371 231° Southwest  Level Estimated
08:37AM 27.9772 106.7518 231° Southwest  Level Estimated
08:38AM 27.9158 106.6666 231° Southwest  Level Estimated
08:39AM 27.8543 106.5815 231° Southwest  Level Estimated
08:40AM 27.7928 106.4965 231° Southwest  Level Estimated
08:41AM 27.7312 106.4115 231° Southwest  Level Estimated
08:42AM 27.6696 106.3267 231° Southwest  Level Estimated
08:43AM 27.6080 106.2420 231° Southwest  Level Estimated
08:44AM 27.5462 106.1574 231° Southwest  Level Estimated
08:45AM 27.4845 106.0728 231° Southwest  Level Estimated
08:46AM 27.4226 105.9884 230° Southwest  Level Estimated
08:47AM 27.3608 105.9041 230° Southwest  Level Estimated
08:48AM 27.2989 105.8198 230° Southwest  Level Estimated
08:49AM 27.2369 105.7356 230° Southwest  Level Estimated
08:50AM 27.1749 105.6516 230° Southwest  Level Estimated
08:51AM 27.1128 105.5676 230° Southwest  Level Estimated
08:52AM 27.0507 105.4837 230° Southwest  Level Estimated
08:53AM 26.9885 105.4000 230° Southwest  Level Estimated
08:54AM 26.9263 105.3163 230° Southwest  Level Estimated
08:55AM 26.8640 105.2327 230° Southwest  Level Estimated
08:56AM 26.8017 105.1492 230° Southwest  Level Estimated
08:57AM 26.7393 105.0658 230° Southwest  Level Estimated
08:58AM 26.6769 104.9824 230° Southwest  Level Estimated
08:59AM 26.6145 104.8992 230° Southwest  Level Estimated
09:00AM 26.5520 104.8161 230° Southwest  Level Estimated
09:01AM 26.4894 104.7330 230° Southwest  Level Estimated
09:02AM 26.4268 104.6500 230° Southwest  Level Estimated
09:03AM 26.3641 104.5672 230° Southwest  Level Estimated
09:04AM 26.3014 104.4844 230° Southwest  Level Estimated
09:05AM 26.2387 104.4017 230° Southwest  Level Estimated
09:06AM 26.1759 104.3191 230° Southwest  Level Estimated
09:07AM 26.1130 104.2366 230° Southwest  Level Estimated
09:08AM 26.0501 104.1542 230° Southwest  Level Estimated
09:09AM 25.9872 104.0719 230° Southwest  Level Estimated
09:10AM 25.9242 103.9896 230° Southwest  Level Estimated
09:11AM 25.8612 103.9074 230° Southwest  Level Estimated
09:12AM 25.7981 103.8254 230° Southwest  Level Estimated
09:13AM 25.7350 103.7434 229° Southwest  Level Estimated
09:14AM 25.6718 103.6615 229° Southwest  Level Estimated
09:15AM 25.6086 103.5797 229° Southwest  Level Estimated
09:16AM 25.5453 103.4980 229° Southwest  Level Estimated
09:17AM 25.4820 103.4163 229° Southwest  Level Estimated
09:18AM 25.4187 103.3348 229° Southwest  Level Estimated
09:19AM 25.3553 103.2533 229° Southwest  Level Estimated
09:20AM 25.2918 103.1719 229° Southwest  Level Estimated
09:21AM 25.2284 103.0906 229° Southwest  Level Estimated
09:22AM 25.1648 103.0094 229° Southwest  Level Estimated
09:23AM 25.1019 102.9292 229° Southwest  Level Estimated
09:24AM 25.1019 102.9292 326° Northwest  Level Estimated
09:25AM 25.1019 102.9292 326° Northwest  Level Estimated
09:26AM 25.1019 102.9292 326° Northwest  Level Estimated
09:27AM 25.1019 102.9292 326° Northwest  Level Estimated
09:28AM 25.1019 102.9292 326° Northwest  Level Estimated
09:29AM 25.1019 102.9292 326° Northwest  Level Estimated
09:30AM 25.1019 102.9292 326° Northwest  Level Estimated
09:31AM 25.1019 102.9292 326° Northwest  Level Estimated
09:32AM 25.1019 102.9292 326° Northwest  Level Estimated
09:33AM 25.1019 102.9292 326° Northwest  Level Estimated
09:34AM 25.1019 102.9292 326° Northwest  Level Estimated
09:35AM 25.1019 102.9292 326° Northwest  Level Estimated
09:36AM 25.1019 102.9292 326° Northwest  Level Estimated
09:37AM 25.1019 102.9292 326° Northwest  Level Estimated
09:38AM 25.1019 102.9292 326° Northwest  Level Estimated
09:39AM 25.1019 102.9292 326° Northwest  Level Estimated
09:40AM 25.1019 102.9292 326° Northwest  Level Estimated
09:41AM 25.1019 102.9292 326° Northwest  Level Estimated
09:42AM 25.1019 102.9292 326° Northwest  Level Estimated
09:43AM 25.1019 102.9292 326° Northwest  Level Estimated
09:44AM 25.1019 102.9292 326° Northwest  Level Estimated